Time;durP1;ratioP1;P1;durP2;ratioP2;P2;SDS_P1;SDS_P2;PMS_P1;PMS_P2;Temp;Humidity;BMP_temperature;BMP_pressure;BME280_temperature;BME280_humidity;BME280_pressure;Samples;Min_cycle;Max_cycle;Signal;HPM_P1;HPM_P2
2022/09/13 00:01:18;;;;;;;0.20;0.20;;;20.30;99.90;21.20;100880.00;;;;5091216;28;20595;-68
2022/09/13 00:03:43;;;;;;;0.20;0.20;;;20.30;99.90;21.00;100900.00;;;;5090620;28;20530;-68
2022/09/13 00:06:14;;;;;;;0.20;0.20;;;20.30;99.90;21.20;100908.00;;;;5073786;28;20702;-68
2022/09/13 00:08:41;;;;;;;0.30;0.30;;;20.30;99.90;21.60;100907.00;;;;5074486;28;20188;-68
2022/09/13 00:11:17;;;;;;;0.20;0.20;;;20.40;99.90;21.30;100895.00;;;;5090418;28;20231;-68
2022/09/13 00:13:43;;;;;;;0.57;0.57;;;20.40;99.90;21.50;100898.00;;;;5091116;28;20174;-69
2022/09/13 00:16:15;;;;;;;0.20;0.20;;;20.50;99.90;22.10;100897.00;;;;5091126;28;20183;-68
2022/09/13 00:18:42;;;;;;;0.20;0.20;;;20.60;99.90;22.80;100908.00;;;;5073167;28;20166;-68
2022/09/13 00:21:15;;;;;;;0.20;0.20;;;21.10;99.90;22.90;100889.00;;;;5090796;28;20192;-69
2022/09/13 00:23:50;;;;;;;0.20;0.20;;;21.40;99.90;22.70;100911.00;;;;5073228;28;20170;-69
2022/09/13 00:26:27;;;;;;;0.20;0.20;;;21.40;99.90;22.90;100906.00;;;;5090833;28;20219;-68
2022/09/13 00:28:56;;;;;;;0.20;0.20;;;21.40;99.90;22.90;100892.00;;;;5090739;28;20253;-68
2022/09/13 00:31:26;;;;;;;0.20;0.20;;;21.50;99.90;22.00;100878.00;;;;5072803;28;20553;-68
2022/09/13 00:33:52;;;;;;;0.32;0.32;;;21.10;99.90;22.10;100870.00;;;;5090108;28;20181;-68
2022/09/13 00:36:18;;;;;;;0.20;0.20;;;20.90;99.90;21.80;100861.00;;;;5090870;28;20314;-68
2022/09/13 00:38:45;;;;;;;0.20;0.20;;;20.70;99.90;22.40;100865.00;;;;5073809;28;20177;-68
2022/09/13 00:41:15;;;;;;;0.30;0.30;;;20.80;99.90;22.40;100859.00;;;;5090332;28;20185;-68
2022/09/13 00:43:59;;;;;;;0.20;0.20;;;20.90;99.90;22.40;100857.00;;;;5074986;28;20158;-68
2022/09/13 00:46:43;;;;;;;0.20;0.20;;;20.90;99.90;22.60;100826.00;;;;5073627;28;20177;-68
2022/09/13 00:49:18;;;;;;;0.20;0.20;;;21.00;99.90;22.70;100859.00;;;;5090157;28;20173;-68
2022/09/13 00:51:56;;;;;;;0.30;0.30;;;21.00;99.90;21.80;100837.00;;;;5090298;28;20280;-68
2022/09/13 00:54:26;;;;;;;0.20;0.20;;;20.80;99.90;21.40;100822.00;;;;5089264;28;20260;-69
2022/09/13 00:56:56;;;;;;;0.20;0.20;;;20.50;99.90;21.00;100811.00;;;;5089893;28;20170;-68
2022/09/13 00:59:37;;;;;;;0.20;0.20;;;20.30;99.90;21.20;100778.00;;;;5073108;28;20226;-69
2022/09/13 01:02:04;;;;;;;0.50;0.50;;;20.20;99.90;20.80;100805.00;;;;5090528;28;20641;-69
2022/09/13 01:04:33;;;;;;;0.20;0.20;;;20.10;99.90;20.70;100807.00;;;;5089919;28;20162;-69
2022/09/13 01:07:05;;;;;;;0.20;0.20;;;19.90;99.90;20.90;100812.00;;;;5089610;28;20575;-69
2022/09/13 01:09:35;;;;;;;0.20;0.20;;;19.90;99.90;21.60;100820.00;;;;5073321;28;20202;-69
2022/09/13 01:12:34;;;;;;;0.20;0.20;;;20.20;99.90;21.60;100806.00;;;;5073068;28;20205;-69
2022/09/13 01:15:03;;;;;;;0.20;0.20;;;20.40;99.90;21.20;100815.00;;;;5089559;28;20219;-69
2022/09/13 01:17:32;;;;;;;0.30;0.30;;;20.30;99.90;21.20;100787.00;;;;5073753;28;20181;-68
2022/09/13 01:19:59;;;;;;;0.25;0.25;;;20.20;99.90;21.80;100813.00;;;;5090194;28;20207;-69
2022/09/13 01:22:46;;;;;;;0.30;0.30;;;20.50;99.90;22.20;100818.00;;;;5089893;28;20192;-69
2022/09/13 01:25:39;;;;;;;0.20;0.20;;;20.70;99.90;22.20;100825.00;;;;5089061;28;20310;-68
2022/09/13 01:28:37;;;;;;;0.30;0.30;;;20.80;99.90;22.10;100820.00;;;;5072598;28;20177;-68
2022/09/13 01:31:26;;;;;;;0.30;0.30;;;20.80;99.90;22.30;100819.00;;;;5089412;28;20182;-68
2022/09/13 01:34:20;;;;;;;0.20;0.20;;;20.80;99.90;22.20;100829.00;;;;5073634;28;20272;-69
2022/09/13 01:37:08;;;;;;;0.30;0.30;;;21.00;99.90;22.20;100847.00;;;;5073703;28;20184;-68
2022/09/13 01:40:16;;;;;;;0.20;0.20;;;20.90;99.90;21.90;100846.00;;;;5089579;28;20545;-68
2022/09/13 01:43:32;;;;;;;0.20;0.20;;;20.70;99.90;22.00;100847.00;;;;5073664;28;20184;-68
2022/09/13 01:46:46;;;;;;;0.20;0.20;;;20.60;99.90;22.10;100810.00;;;;5063028;28;20196;-68
2022/09/13 01:49:24;;;;;;;0.20;0.20;;;20.60;99.90;22.30;100854.00;;;;5089503;28;20176;-68
2022/09/13 01:52:17;;;;;;;0.98;0.95;;;20.70;99.90;21.90;100855.00;;;;5073692;28;20230;-69
2022/09/13 01:55:26;;;;;;;0.20;0.20;;;20.60;99.90;21.40;100858.00;;;;5089162;28;20181;-68
2022/09/13 01:58:18;;;;;;;0.20;0.20;;;20.40;99.90;21.00;100852.00;;;;5069670;28;20197;-68
2022/09/13 02:01:17;;;;;;;0.20;0.20;;;20.20;99.90;21.30;100852.00;;;;5071909;28;20702;-68
2022/09/13 02:03:55;;;;;;;0.77;0.77;;;20.10;99.90;21.90;100867.00;;;;5070501;28;20662;-68
2022/09/13 02:06:31;;;;;;;0.20;0.20;;;20.40;99.90;21.90;100848.00;;;;5072116;28;20173;-68
2022/09/13 02:09:02;;;;;;;0.20;0.20;;;20.60;99.90;22.10;100861.00;;;;5089234;28;20229;-69
2022/09/13 02:11:28;;;;;;;0.20;0.20;;;20.70;99.90;22.10;100862.00;;;;5089069;28;20311;-68
2022/09/13 02:14:14;;;;;;;0.20;0.20;;;20.80;99.90;22.10;100854.00;;;;5088478;28;20644;-68
2022/09/13 02:16:56;;;;;;;0.20;0.20;;;20.80;99.90;22.00;100850.00;;;;5071993;28;20215;-69
2022/09/13 02:19:51;;;;;;;0.22;0.22;;;20.80;99.90;22.00;100850.00;;;;5088765;28;20181;-69
2022/09/13 02:22:25;;;;;;;0.30;0.30;;;20.70;99.90;21.90;100821.00;;;;5073340;28;20191;-69
2022/09/13 02:24:56;;;;;;;0.20;0.20;;;20.60;99.90;21.70;100855.00;;;;5072927;28;20682;-69
2022/09/13 02:27:29;;;;;;;0.20;0.20;;;20.70;99.90;21.40;100845.00;;;;5071939;28;20204;-69
2022/09/13 02:30:02;;;;;;;0.20;0.20;;;20.40;99.90;21.60;100849.00;;;;5088370;28;20203;-69
2022/09/13 02:32:35;;;;;;;0.20;0.20;;;20.30;99.90;21.70;100863.00;;;;5071397;28;20323;-69
2022/09/13 02:35:17;;;;;;;0.20;0.20;;;20.30;99.90;21.60;100858.00;;;;5088761;28;20552;-69
2022/09/13 02:37:49;;;;;;;0.30;0.30;;;20.30;99.90;21.50;100854.00;;;;5088816;28;20192;-68
2022/09/13 02:40:22;;;;;;;0.77;0.77;;;20.30;99.90;21.10;100852.00;;;;5073338;28;20238;-68
2022/09/13 02:43:17;;;;;;;0.30;0.30;;;20.20;99.90;20.90;100861.00;;;;5071611;28;20230;-68
2022/09/13 02:46:39;;;;;;;0.25;0.25;;;20.00;99.90;21.50;100880.00;;;;5073132;28;20194;-69
2022/09/13 02:49:30;;;;;;;0.40;0.40;;;20.10;99.90;22.10;100854.00;;;;5073005;28;20577;-69
2022/09/13 02:52:32;;;;;;;0.20;0.20;;;20.50;99.90;21.90;100884.00;;;;5073286;28;20197;-69
2022/09/13 02:55:16;;;;;;;0.30;0.30;;;20.50;99.90;22.20;100894.00;;;;5072700;28;20170;-68
2022/09/13 02:58:12;;;;;;;0.30;0.30;;;20.80;99.90;22.10;100886.00;;;;5072749;28;20212;-68
2022/09/13 03:00:39;;;;;;;0.30;0.30;;;20.80;99.90;21.90;100866.00;;;;5072882;28;20181;-69
2022/09/13 03:03:10;;;;;;;0.30;0.30;;;20.80;99.90;21.90;100884.00;;;;5088428;28;20193;-69
2022/09/13 03:05:36;;;;;;;0.20;0.20;;;20.60;99.90;22.00;100891.00;;;;5087994;28;20531;-69
2022/09/13 03:08:03;;;;;;;0.52;0.52;;;20.60;99.90;22.00;100883.00;;;;5088234;28;20538;-68
2022/09/13 03:15:03;;;;;;;0.20;0.20;;;20.70;99.90;22.00;100881.00;;;;5085981;28;20334;-69
2022/09/13 03:17:49;;;;;;;0.20;0.20;;;20.60;99.90;22.20;100884.00;;;;5081262;28;20204;-69
2022/09/13 03:24:45;;;;;;;0.40;0.40;;;21.00;99.90;21.50;100876.00;;;;5089463;28;20759;-69
2022/09/13 03:27:49;;;;;;;0.30;0.30;;;20.50;99.90;21.60;100873.00;;;;5067265;28;20191;-69
2022/09/13 03:41:23;;;;;;;0.30;0.30;;;20.50;99.90;21.90;100867.00;;;;5088917;28;20200;-68
2022/09/13 03:43:58;;;;;;;0.20;0.20;;;20.50;99.90;21.90;100862.00;;;;5094825;28;20202;-69
2022/09/13 03:46:47;;;;;;;0.20;0.20;;;20.50;99.90;22.00;100865.00;;;;5075080;28;20176;-68
2022/09/13 03:49:16;;;;;;;0.20;0.20;;;20.50;99.90;21.90;100855.00;;;;5074859;28;20726;-68
2022/09/13 03:51:47;;;;;;;0.20;0.20;;;20.70;99.90;21.80;100811.00;;;;5055741;28;20200;-68
2022/09/13 03:54:23;;;;;;;0.20;0.20;;;20.50;99.90;22.10;100847.00;;;;5071359;28;20182;-69
2022/09/13 03:57:10;;;;;;;0.20;0.20;;;20.60;99.90;22.10;100856.00;;;;5054744;28;20739;-69
2022/09/13 03:59:39;;;;;;;0.20;0.20;;;20.80;99.90;21.20;100846.00;;;;5054856;28;20223;-68
2022/09/13 04:02:10;;;;;;;0.20;0.20;;;20.40;99.90;20.70;100843.00;;;;5054573;28;20177;-68
2022/09/13 04:04:38;;;;;;;0.22;0.22;;;20.00;99.90;21.40;100837.00;;;;5054797;28;20189;-69
2022/09/13 04:07:03;;;;;;;0.20;0.20;;;20.00;99.90;21.50;100826.00;;;;5055657;28;20184;-68
2022/09/13 04:09:30;;;;;;;0.30;0.30;;;20.20;99.90;21.70;100849.00;;;;5073151;28;20281;-68
2022/09/13 04:11:56;;;;;;;0.30;0.30;;;20.40;99.90;21.80;100797.00;;;;5074159;28;20204;-68
2022/09/13 04:14:25;;;;;;;0.30;0.30;;;20.40;99.90;21.70;100844.00;;;;5074252;28;20185;-69
2022/09/13 04:16:53;;;;;;;0.20;0.20;;;20.40;99.90;21.50;100787.00;;;;5074277;28;20227;-69
2022/09/13 04:19:30;;;;;;;0.30;0.30;;;20.30;99.90;21.10;100793.00;;;;5074549;28;20173;-69
2022/09/13 04:22:02;;;;;;;0.30;0.30;;;20.10;99.90;21.40;100799.00;;;;5074566;28;20255;-68
2022/09/13 04:24:30;;;;;;;0.20;0.20;;;20.10;99.90;21.20;100810.00;;;;5075605;28;20224;-69
2022/09/13 04:27:00;;;;;;;0.30;0.30;;;20.00;99.90;21.50;100816.00;;;;5057725;28;20180;-69
2022/09/13 04:29:26;;;;;;;0.45;0.45;;;20.00;99.90;21.20;100789.00;;;;5075065;28;20204;-68
2022/09/13 04:31:53;;;;;;;0.30;0.30;;;20.00;99.90;21.20;100821.00;;;;5074155;28;20718;-68
2022/09/13 04:34:21;;;;;;;0.30;0.30;;;19.90;99.90;21.20;100792.00;;;;5074063;28;20533;-68
2022/09/13 04:36:49;;;;;;;0.30;0.30;;;19.90;99.90;21.50;100818.00;;;;5058075;28;20205;-68
2022/09/13 04:39:14;;;;;;;0.30;0.30;;;20.00;99.90;21.70;100797.00;;;;5067631;28;20188;-68
2022/09/13 04:41:43;;;;;;;0.30;0.30;;;20.10;99.90;21.50;100838.00;;;;5071471;28;20253;-68
2022/09/13 04:44:09;;;;;;;0.30;0.30;;;20.10;99.90;21.30;100838.00;;;;5053357;28;20632;-68
2022/09/13 04:46:35;;;;;;;0.30;0.30;;;20.00;99.90;21.60;100844.00;;;;5095797;28;20224;-68
2022/09/13 04:49:02;;;;;;;0.20;0.20;;;20.10;99.90;21.70;100849.00;;;;5074113;28;20193;-68
2022/09/13 04:51:27;;;;;;;0.30;0.30;;;20.30;99.90;21.50;100847.00;;;;5073644;28;20211;-68
2022/09/13 04:53:54;;;;;;;0.30;0.30;;;20.20;99.90;21.60;100809.00;;;;5073330;28;20181;-68
2022/09/13 04:56:24;;;;;;;0.20;0.20;;;20.10;99.90;21.80;100860.00;;;;5073274;28;20268;-68
2022/09/13 04:58:50;;;;;;;0.20;0.20;;;20.30;99.90;21.40;100824.00;;;;5056730;28;20180;-68
2022/09/13 05:01:17;;;;;;;0.30;0.30;;;20.30;99.90;21.50;100871.00;;;;5064123;28;20186;-68
2022/09/13 05:03:46;;;;;;;0.20;0.20;;;20.20;99.90;21.70;100867.00;;;;5087016;28;20180;-68
2022/09/13 05:06:19;;;;;;;0.30;0.30;;;20.30;99.90;21.40;100868.00;;;;5087074;28;20220;-68
2022/09/13 05:08:54;;;;;;;0.30;0.30;;;20.20;99.90;21.50;100832.00;;;;5053178;28;20229;-68
2022/09/13 05:11:26;;;;;;;0.30;0.30;;;20.20;99.90;21.30;100874.00;;;;5086214;28;20178;-68
2022/09/13 05:13:54;;;;;;;0.20;0.20;;;20.20;99.90;21.60;100831.00;;;;5086559;28;20197;-69
2022/09/13 05:16:27;;;;;;;4.53;1.92;;;20.20;99.90;21.70;100867.00;;;;5086300;28;20232;-68
2022/09/13 05:18:53;;;;;;;0.20;0.20;;;20.30;99.90;21.80;100884.00;;;;5086664;28;20189;-68
2022/09/13 05:21:22;;;;;;;0.30;0.30;;;20.30;99.90;21.80;100876.00;;;;5053146;28;20192;-69
2022/09/13 05:23:50;;;;;;;0.30;0.30;;;20.40;99.90;21.60;100880.00;;;;5053192;28;20237;-68
2022/09/13 05:26:21;;;;;;;0.30;0.30;;;20.40;99.90;22.00;100881.00;;;;5052927;28;20193;-68
2022/09/13 05:28:47;;;;;;;0.30;0.30;;;20.40;99.90;21.40;100861.00;;;;5053097;28;20235;-68
2022/09/13 05:31:27;;;;;;;0.30;0.30;;;20.30;99.90;21.80;100871.00;;;;5052773;28;20182;-68
2022/09/13 05:34:03;;;;;;;0.22;0.22;;;20.30;99.90;21.50;100835.00;;;;5052773;28;20191;-68
2022/09/13 05:36:49;;;;;;;0.20;0.20;;;20.20;99.90;21.30;100873.00;;;;5052839;28;20670;-68
2022/09/13 05:39:16;;;;;;;0.20;0.20;;;20.20;99.90;21.50;100880.00;;;;5052845;28;20232;-69
2022/09/13 05:41:43;;;;;;;0.30;0.30;;;20.20;99.90;21.40;100885.00;;;;5053694;28;20182;-69
2022/09/13 05:44:09;;;;;;;0.20;0.20;;;20.20;99.90;21.10;100881.00;;;;5052396;28;20191;-68
2022/09/13 05:46:36;;;;;;;0.20;0.20;;;20.20;99.90;20.60;100879.00;;;;5053779;28;20324;-69
2022/09/13 05:49:02;;;;;;;0.20;0.20;;;19.90;99.90;20.70;100883.00;;;;5053963;28;20269;-68
2022/09/13 05:51:28;;;;;;;0.47;0.47;;;19.80;99.90;21.40;100886.00;;;;5052447;28;20185;-69
2022/09/13 05:53:58;;;;;;;0.30;0.30;;;20.00;99.90;21.50;100885.00;;;;5053284;28;20170;-68
2022/09/13 05:56:29;;;;;;;0.25;0.25;;;20.10;99.90;21.60;100894.00;;;;5052375;28;20174;-68
2022/09/13 05:59:02;;;;;;;0.30;0.30;;;20.20;99.90;21.70;100896.00;;;;5052446;28;20337;-69
2022/09/13 06:01:28;;;;;;;0.30;0.30;;;20.40;99.90;21.90;100891.00;;;;5052167;28;20543;-68
2022/09/13 06:03:58;;;;;;;0.20;0.20;;;20.40;99.90;22.00;100894.00;;;;5052594;28;20228;-68
2022/09/13 06:06:26;;;;;;;0.30;0.30;;;20.50;99.90;21.80;100881.00;;;;5052167;28;20174;-68
2022/09/13 06:08:59;;;;;;;0.30;0.30;;;20.50;99.90;22.00;100883.00;;;;5052098;28;20186;-69
2022/09/13 06:11:27;;;;;;;0.20;0.20;;;20.50;99.90;22.00;100877.00;;;;5052926;28;20196;-69
2022/09/13 06:13:56;;;;;;;0.30;0.30;;;20.60;99.90;22.00;100892.00;;;;5052215;28;20178;-68
2022/09/13 06:16:22;;;;;;;0.30;0.30;;;20.60;99.90;22.20;100900.00;;;;5052082;28;20170;-69
2022/09/13 06:18:48;;;;;;;0.30;0.30;;;20.70;99.90;22.00;100897.00;;;;5052234;28;20181;-69
2022/09/13 06:21:20;;;;;;;0.30;0.30;;;20.80;99.90;21.20;100893.00;;;;5052476;28;20174;-69
2022/09/13 06:23:51;;;;;;;0.20;0.20;;;20.50;99.90;20.80;100895.00;;;;5052225;28;20178;-69
2022/09/13 06:26:21;;;;;;;0.20;0.20;;;20.10;99.90;20.30;100884.00;;;;5051999;28;20177;-69
2022/09/13 06:28:51;;;;;;;0.20;0.20;;;19.90;99.90;20.30;100881.00;;;;5052149;28;20174;-69
2022/09/13 06:31:20;;;;;;;0.30;0.30;;;19.70;99.90;20.80;100883.00;;;;5051981;28;20629;-69
2022/09/13 06:33:46;;;;;;;0.65;0.65;;;19.80;99.90;21.60;100903.00;;;;5053284;28;20312;-68
2022/09/13 06:36:16;;;;;;;0.20;0.20;;;20.20;99.90;21.20;100902.00;;;;5051742;28;20239;-68
2022/09/13 06:38:44;;;;;;;0.20;0.20;;;20.30;99.90;21.00;100870.00;;;;5053000;28;20339;-68
2022/09/13 06:41:19;;;;;;;0.20;0.20;;;20.20;99.90;20.50;100892.00;;;;5052003;28;20681;-68
2022/09/13 06:43:46;;;;;;;0.20;0.20;;;19.90;99.90;20.50;100892.00;;;;5052244;28;20189;-68
2022/09/13 06:46:16;;;;;;;0.45;0.45;;;19.90;99.90;21.50;100897.00;;;;5051987;28;20523;-68
2022/09/13 06:48:44;;;;;;;0.28;0.28;;;20.20;99.90;21.10;100892.00;;;;5051811;28;20183;-69
2022/09/13 06:51:13;;;;;;;0.20;0.20;;;20.20;99.90;21.50;100904.00;;;;5051151;28;20204;-68
2022/09/13 06:53:45;;;;;;;1.15;1.05;;;20.30;99.90;21.50;100899.00;;;;5053275;28;20292;-69
2022/09/13 06:56:29;;;;;;;0.28;0.28;;;20.50;99.90;21.50;100892.00;;;;5039430;28;20626;-68
2022/09/13 06:59:03;;;;;;;0.20;0.20;;;20.40;99.90;21.60;100889.00;;;;5055641;28;20185;-68
2022/09/13 07:01:46;;;;;;;0.20;0.20;;;20.60;99.90;21.90;100894.00;;;;5055530;28;20232;-68
2022/09/13 07:04:18;;;;;;;0.30;0.30;;;20.60;99.90;22.80;100876.00;;;;5055992;28;20194;-68
2022/09/13 07:06:48;;;;;;;0.20;0.20;;;21.20;99.90;22.40;100896.00;;;;5055699;28;20170;-67
2022/09/13 07:09:18;;;;;;;0.30;0.30;;;21.20;99.90;22.20;100882.00;;;;5055640;28;20594;-67
2022/09/13 07:11:46;;;;;;;0.20;0.20;;;21.10;99.90;23.10;100882.00;;;;5055576;28;20202;-68
2022/09/13 07:14:21;;;;;;;0.30;0.30;;;21.50;99.90;23.00;100857.00;;;;5055440;28;20209;-68
2022/09/13 07:16:47;;;;;;;0.30;0.30;;;21.80;99.90;23.80;100878.00;;;;5055496;28;20170;-67
2022/09/13 07:19:25;;;;;;;0.20;0.20;;;22.10;99.90;23.90;100875.00;;;;5055444;28;20296;-68
2022/09/13 07:21:52;;;;;;;0.20;0.20;;;22.40;99.90;24.10;100881.00;;;;5054666;28;20200;-68
2022/09/13 07:24:19;;;;;;;0.30;0.30;;;22.50;99.90;24.30;100881.00;;;;5056490;28;20637;-68
2022/09/13 07:26:46;;;;;;;0.30;0.30;;;22.70;99.90;24.30;100922.00;;;;5091865;28;20178;-68
2022/09/13 07:29:18;;;;;;;0.30;0.30;;;22.80;99.90;24.60;100921.00;;;;5092228;28;20276;-68
2022/09/13 07:31:47;;;;;;;0.30;0.30;;;22.90;99.90;25.00;100932.00;;;;5076220;28;20211;-68
2022/09/13 07:34:19;;;;;;;0.20;0.20;;;23.20;99.90;25.00;100941.00;;;;5085120;28;20247;-68
2022/09/13 07:36:46;;;;;;;0.20;0.20;;;23.40;99.90;25.30;100936.00;;;;5054145;28;20194;-68
2022/09/13 07:39:13;;;;;;;0.25;0.25;;;23.50;99.90;25.50;100951.00;;;;5054761;28;20175;-68
2022/09/13 07:41:39;;;;;;;0.20;0.20;;;23.80;99.90;25.50;100955.00;;;;5054275;28;20661;-68
2022/09/13 07:44:06;;;;;;;0.20;0.20;;;23.90;99.90;25.50;100949.00;;;;5054608;28;20650;-68
2022/09/13 07:46:42;;;;;;;0.30;0.30;;;24.10;99.90;24.30;100945.00;;;;5055831;28;20170;-68
2022/09/13 07:49:13;;;;;;;0.40;0.40;;;23.50;99.90;24.90;100935.00;;;;5055226;28;20182;-67
2022/09/13 07:51:41;;;;;;;0.20;0.20;;;23.40;99.90;25.20;100952.00;;;;5062073;28;20196;-67
2022/09/13 07:54:16;;;;;;;0.30;0.30;;;23.60;99.90;24.70;100926.00;;;;5091506;28;20186;-67
2022/09/13 07:56:43;;;;;;;0.20;0.20;;;23.50;99.90;23.90;100902.00;;;;5092198;28;20179;-68
2022/09/13 07:59:15;;;;;;;0.30;0.30;;;23.10;99.90;25.10;100938.00;;;;5081112;28;20188;-67
2022/09/13 08:02:04;;;;;;;0.20;0.20;;;23.30;99.90;25.90;100960.00;;;;5100730;28;20189;-68
2022/09/13 08:04:30;;;;;;;0.20;0.20;;;24.20;99.90;26.10;100956.00;;;;5073711;28;20170;-69
2022/09/13 08:06:55;;;;;;;0.20;0.20;;;24.40;99.90;25.60;100967.00;;;;5075043;28;20184;-67
2022/09/13 08:09:21;;;;;;;0.20;0.20;;;24.50;99.90;25.90;100966.00;;;;5074629;28;20593;-67
2022/09/13 08:11:52;;;;;;;0.30;0.30;;;24.60;99.90;26.20;100962.00;;;;5074477;28;20204;-68
2022/09/13 08:14:21;;;;;;;0.20;0.20;;;24.70;99.90;27.10;100978.00;;;;5074129;28;20188;-68
2022/09/13 08:16:47;;;;;;;1.38;1.10;;;25.20;99.90;28.00;100974.00;;;;5073611;28;20170;-66
2022/09/13 08:19:16;;;;;;;0.20;0.20;;;26.10;99.90;28.80;100989.00;;;;5081864;28;20186;-69
2022/09/13 08:21:43;;;;;;;0.20;0.20;;;27.00;99.90;28.70;100963.00;;;;5091676;28;20181;-68
2022/09/13 08:24:18;;;;;;;3.83;1.27;;;27.60;99.90;30.00;101006.00;;;;5091532;28;20158;-68
2022/09/13 08:26:44;;;;;;;0.20;0.20;;;28.20;99.90;28.90;100995.00;;;;5091343;28;20173;-68
2022/09/13 08:29:13;;;;;;;0.20;0.20;;;27.80;99.90;27.20;100982.00;;;;5091063;28;20264;-70
2022/09/13 08:31:39;;;;;;;1.45;0.98;;;26.80;99.90;27.60;100985.00;;;;5090800;28;20227;-74
2022/09/13 08:34:10;;;;;;;1.52;1.42;;;26.40;99.90;28.50;101002.00;;;;5090560;28;20235;-67
2022/09/13 08:36:46;;;;;;;0.20;0.20;;;26.80;99.90;27.80;100990.00;;;;5088631;28;20197;-71
2022/09/13 08:39:12;;;;;;;0.52;0.52;;;26.90;99.90;27.30;100984.00;;;;5074428;28;20188;-73
2022/09/13 08:41:43;;;;;;;0.32;0.32;;;26.50;99.90;26.70;100971.00;;;;5090791;28;20170;-68
2022/09/13 08:44:37;;;;;;;0.20;0.20;;;26.00;99.90;27.40;100977.00;;;;5074690;28;20180;-68
2022/09/13 08:47:40;;;;;;;0.80;0.63;;;25.90;99.90;26.00;100946.00;;;;5067172;28;20302;-68
2022/09/13 08:50:22;;;;;;;1.88;1.85;;;25.80;99.90;25.60;100957.00;;;;5090521;28;20165;-68
2022/09/13 08:53:26;;;;;;;1.65;1.65;;;25.20;99.90;25.30;100934.00;;;;5090578;28;20532;-68
2022/09/13 08:56:22;;;;;;;1.27;1.20;;;24.50;99.90;25.80;100911.00;;;;5090347;28;20533;-68
2022/09/13 08:59:29;;;;;;;1.95;1.58;;;24.70;99.90;26.20;100964.00;;;;5090332;28;20205;-68
2022/09/13 09:02:16;;;;;;;1.50;1.40;;;25.30;99.90;25.20;100941.00;;;;5090061;28;20184;-68
2022/09/13 09:04:45;;;;;;;2.10;1.88;;;25.10;99.90;25.10;100930.00;;;;5090238;28;20200;-72
2022/09/13 09:07:32;;;;;;;1.38;1.27;;;24.60;99.90;25.30;100937.00;;;;5102606;28;20283;-70
2022/09/13 09:10:05;;;;;;;0.50;0.50;;;24.70;99.90;26.20;100951.00;;;;5110930;28;20248;-70
2022/09/13 09:13:06;;;;;;;0.75;0.68;;;25.10;99.90;27.10;100971.00;;;;5110236;28;20224;-70
2022/09/13 09:15:43;;;;;;;1.65;1.33;;;25.60;99.90;26.50;100957.00;;;;5109554;28;20177;-69
2022/09/13 09:18:27;;;;;;;1.33;0.93;;;25.60;99.90;25.80;100947.00;;;;5109807;28;20163;-69
2022/09/13 09:21:02;;;;;;;1.08;1.08;;;25.20;99.90;25.90;100938.00;;;;5110552;28;20161;-69
2022/09/13 09:23:41;;;;;;;1.65;1.55;;;25.00;99.90;26.50;100916.00;;;;5094830;28;20179;-68
2022/09/13 09:26:18;;;;;;;0.85;0.85;;;25.40;99.90;25.80;100943.00;;;;5099271;28;20230;-69
2022/09/13 09:29:25;;;;;;;0.20;0.20;;;25.10;99.90;26.50;100940.00;;;;5074307;28;20161;-74
2022/09/13 09:32:24;;;;;;;1.73;1.63;;;25.40;99.90;27.40;100955.00;;;;5022977;28;20495;-68
2022/09/13 09:35:11;;;;;;;0.43;0.43;;;26.00;99.90;28.60;100965.00;;;;5073876;28;20169;-68
2022/09/13 09:37:40;;;;;;;1.08;0.88;;;26.90;99.90;28.50;100943.00;;;;5074016;28;20676;-69
2022/09/13 09:40:11;;;;;;;1.33;1.23;;;27.60;99.90;28.50;100969.00;;;;5089769;28;20173;-69
2022/09/13 09:42:44;;;;;;;1.05;0.52;;;27.60;99.90;28.60;100976.00;;;;5082889;28;20197;-69
2022/09/13 09:45:29;;;;;;;2.03;1.52;;;27.60;99.90;27.80;100971.00;;;;5088963;28;20231;-70
2022/09/13 09:48:06;;;;;;;0.65;0.35;;;27.40;99.90;29.60;100970.00;;;;5073841;28;20177;-68
2022/09/13 09:50:44;;;;;;;0.15;0.15;;;27.80;99.90;30.10;100940.00;;;;5089271;28;20244;-67
2022/09/13 09:53:42;;;;;;;2.13;2.03;;;28.50;99.90;29.00;100955.00;;;;5089475;28;20205;-67
2022/09/13 09:56:24;;;;;;;3.40;1.83;;;28.20;99.90;28.70;100968.00;;;;5089325;28;20503;-67
2022/09/13 09:58:54;;;;;;;2.95;1.73;;;28.00;99.90;29.00;100921.00;;;;5089385;28;20189;-67
2022/09/13 10:01:31;;;;;;;0.40;0.40;;;28.00;99.90;29.10;100966.00;;;;5088723;28;20729;-67
2022/09/13 10:04:03;;;;;;;1.70;1.60;;;27.80;99.90;26.90;100948.00;;;;5088801;28;20177;-67
2022/09/13 10:06:30;;;;;;;0.10;0.10;;;27.20;99.90;28.00;100957.00;;;;5088932;28;20188;-67
2022/09/13 10:09:12;;;;;;;0.50;0.50;;;26.90;99.90;27.70;100946.00;;;;5073208;28;20184;-68
2022/09/13 10:11:50;;;;;;;0.95;0.88;;;27.20;99.90;28.30;100897.00;;;;5073128;28;20181;-67
2022/09/13 10:14:40;;;;;;;0.20;0.20;;;27.20;99.90;28.30;100924.00;;;;5088759;28;20196;-69
2022/09/13 10:17:23;;;;;;;16.25;5.30;;;27.10;99.90;27.30;100933.00;;;;5073157;28;20254;-69
2022/09/13 10:20:02;;;;;;;0.68;0.68;;;27.30;99.90;28.20;100949.00;;;;5085534;28;20178;-70
2022/09/13 10:33:35;;;;;;;0.30;0.30;;;26.00;99.90;27.00;100900.00;;;;5070655;28;20556;-70
2022/09/13 10:36:16;;;;;;;0.65;0.63;;;26.10;99.90;27.00;100867.00;;;;5050428;28;20182;-71
2022/09/13 10:39:04;;;;;;;3.70;2.67;;;26.50;99.90;25.70;100885.00;;;;5049127;28;20273;-70
2022/09/13 10:41:34;;;;;;;3.92;1.88;;;25.70;99.90;26.20;100889.00;;;;5049297;28;20182;-71
2022/09/13 10:44:03;;;;;;;3.55;3.22;;;25.70;99.90;25.60;100891.00;;;;5028553;28;20183;-71
2022/09/13 10:46:34;;;;;;;0.70;0.40;;;25.50;99.90;25.50;100884.00;;;;5048448;28;20639;-70
2022/09/13 10:49:00;;;;;;;0.30;0.30;;;25.30;99.90;26.50;100897.00;;;;5049360;28;20178;-71
2022/09/13 10:51:26;;;;;;;0.10;0.10;;;25.50;99.90;27.70;100926.00;;;;5049090;28;20202;-71
2022/09/13 10:54:22;;;;;;;4.82;3.45;;;26.30;99.90;26.00;100915.00;;;;5050336;28;20185;-71
2022/09/13 10:56:52;;;;;;;2.38;2.17;;;26.20;99.90;27.10;100926.00;;;;5048719;28;20537;-71
2022/09/13 10:59:28;;;;;;;2.05;0.95;;;26.10;99.90;26.20;100925.00;;;;5048963;28;20209;-71
2022/09/13 11:02:31;;;;;;;0.10;0.10;;;25.90;99.90;27.40;100897.00;;;;5048503;28;20181;-71
2022/09/13 11:05:18;;;;;;;0.10;0.10;;;26.10;99.90;28.20;100937.00;;;;5050162;28;20279;-71
2022/09/13 11:08:07;;;;;;;0.63;0.63;;;26.60;99.90;27.00;100928.00;;;;5042175;28;20185;-70
2022/09/13 11:11:07;;;;;;;4.10;2.13;;;26.30;99.90;26.60;100930.00;;;;5048605;28;20190;-70
2022/09/13 11:14:07;;;;;;;0.13;0.13;;;26.40;99.90;27.50;100924.00;;;;5049495;28;20579;-70
2022/09/13 11:17:20;;;;;;;1.48;0.77;;;26.50;99.90;27.70;100934.00;;;;5044648;28;20537;-70
2022/09/13 11:20:11;;;;;;;0.10;0.10;;;26.60;99.90;28.10;100937.00;;;;5047253;28;20265;-71
2022/09/13 11:22:57;;;;;;;2.90;1.65;;;26.80;99.90;28.40;100928.00;;;;5048385;28;20241;-70
2022/09/13 11:25:50;;;;;;;0.40;0.40;;;27.00;99.90;27.90;100901.00;;;;5047997;28;20183;-70
2022/09/13 11:28:40;;;;;;;0.10;0.10;;;27.30;99.90;27.60;100934.00;;;;5048266;28;20175;-71
2022/09/13 11:31:43;;;;;;;0.10;0.10;;;26.90;99.90;28.40;100935.00;;;;5048105;28;20179;-70
2022/09/13 11:34:42;;;;;;;2.78;2.10;;;27.20;99.90;27.10;100939.00;;;;5049427;28;20208;-71
2022/09/13 11:37:45;;;;;;;1.85;1.73;;;27.50;99.90;29.10;100926.00;;;;5049006;28;20175;-71
2022/09/13 11:40:32;;;;;;;0.52;0.52;;;27.50;99.90;28.50;100930.00;;;;5051548;28;20570;-71
2022/09/13 11:43:38;;;;;;;0.13;0.13;;;27.90;99.90;29.40;100912.00;;;;5044396;28;20195;-71
2022/09/13 11:46:41;;;;;;;1.33;1.23;;;28.20;99.90;29.60;100939.00;;;;5036034;28;20179;-71
2022/09/13 11:49:53;;;;;;;0.85;0.85;;;28.20;99.90;29.80;100954.00;;;;5035157;28;20217;-68
2022/09/13 11:52:36;;;;;;;0.10;0.10;;;28.40;99.90;30.00;100957.00;;;;5026020;28;20348;-69
2022/09/13 11:55:17;;;;;;;0.10;0.10;;;28.50;99.90;29.90;100963.00;;;;5035838;28;20187;-69
2022/09/13 11:57:55;;;;;;;0.10;0.10;;;28.80;99.90;30.20;100955.00;;;;5051731;28;20191;-71
2022/09/13 12:00:25;;;;;;;0.43;0.43;;;28.60;99.90;29.80;100969.00;;;;5014127;28;20278;-72